Morehouse, Missouri
Current Conditions -  °F | °C
As of 6:53 PM on Friday 19 Dec 2014 (Local Time) from KCGI Reporting Station
Overcast Overcast  
Wind Chill: 34°   Ceiling: 8000
Heat Index: 38°   Visibility: 10mi
Dew Point: 33°   Wind: 5mph
Humidity: 83%   Direction: 30°NNE
Pressure: 30.25"   Gusts: NA
Location:  36.85°N, 89.69°W
Report Text: KCGI 200053Z AUTO 03004KT 10SM SCT065 BKN080 OVC090 03/01 A3025 RMK AO2 SLP246 T00330006 TSNO
Loading
Personal Weather Stations






























Interactive Weather Map New forecast layout! Learn more

10-Day Weather Forecast

Advertisements
Track Severe Weather on mobile